Eckert, CO

10:39 PM MDT on May 23, 2015 (GMT -0600)
Garfield County Regional | | Change Station
CLOSE
Current Station
Airport
Location: Rifle,
Elevation: 5541 ft
Nearby Weather Stations

Elev 5541 ft 39.52 °N, 107.73 °W | Updated 46 minutes ago

Overcast
Overcast
48 °F
Feels Like 48 °F
N
6
Wind Variable Wind from East

Today
High -- | Low -- °F
--% Chance of Precip.
Yesterday
High -- | Low -- °F
Precip. -- in
5:53 AM 8:24 PM
Waxing Crescent, 35% visible
Pressure 29.89 in
Visibility 10.0 miles
Clouds Few 6000 ft
Dew Point 41 °F
Humidity 77%
Rainfall 0.05 in
Snow Depth Not available.
UV 0 out of 12
Pollen 7.50 out of 12
Air Quality Not available.
Flu Activity Sporadic
METAR KRIL 240353Z AUTO 10005KT 10SM FEW060 09/05 A3000 RMK AO2 RAB0257E26 SLP122 P0002 T00890050

More Conditions Fewer Conditions

Pressure 29.89 in
Visibility 10.0 miles
Clouds Few 6000 ft
Dew Point 41 °F
Humidity 77%
Rainfall 0.05 in
Snow Depth Not available.
UV 0 out of 12
Pollen 7.50 out of 12
Air Quality Not available.
Flu Activity Sporadic
METAR KRIL 240353Z AUTO 10005KT 10SM FEW060 09/05 A3000 RMK AO2 RAB0257E26 SLP122 P0002 T00890050

More Conditions Fewer Conditions

10-Day Weather Forecast

Almanac

Astronomy

May. 23, 2015 Rise Set
Actual Time
Civil Twilight
Nautical Twilight
Astronomical Twilight
Moon
Length of Visible Light
Length of Day
Tomorrow will be .
, % of the Moon is Illuminated

Today's Extremes

State Highs State Lows

Community

WunderPhotos

Upload Photos

1,823,688 photos uploaded!

WunderBlogs® & News

Nearby

Air Quality

  Air Quality AQ Index Pollutant
Not available.

Snow Depth

Station Depth Elevation

Earthquake Activity

City Distance Mag. Time & Date
Minimum magnitude displayed is 2.5.

Coastal Water Temperatures

Place Temperature

Stations

Nearby Weather Stations

Station Location Temp. Windchill Dew Point Humidity Wind Precip. Elev Updated Type